Time;durP1;ratioP1;P1;durP2;ratioP2;P2;SDS_P1;SDS_P2;PMS_P1;PMS_P2;Temp;Humidity;BMP_temperature;BMP_pressure;BME280_temperature;BME280_humidity;BME280_pressure;Samples;Min_cycle;Max_cycle;Signal;HPM_P1;HPM_P2
2022/11/04 00:01:27;;;;;;;9.07;3.60;;;9.40;99.90;;;;;;5053890;28;20079;-64
2022/11/04 00:03:54;;;;;;;7.13;3.47;;;9.40;99.90;;;;;;5040407;28;20056;-63
2022/11/04 00:06:21;;;;;;;7.53;3.92;;;9.40;99.90;;;;;;5034026;28;20041;-63
2022/11/04 00:08:48;;;;;;;9.23;3.88;;;9.40;99.90;;;;;;5049748;28;20042;-64
2022/11/04 00:13:59;;;;;;;6.50;3.85;;;9.40;99.90;;;;;;5050587;28;20041;-64
2022/11/04 00:19:12;;;;;;;9.52;4.68;;;9.40;99.90;;;;;;5043384;28;20033;-63
2022/11/04 00:29:54;;;;;;;12.38;4.93;;;9.30;99.90;;;;;;5051785;28;20597;-63
2022/11/04 00:35:06;;;;;;;11.57;5.30;;;9.30;99.90;;;;;;5053686;28;20067;-63
2022/11/04 00:37:32;;;;;;;10.75;5.20;;;9.30;99.90;;;;;;5051623;28;20116;-64
2022/11/04 00:39:59;;;;;;;11.15;5.47;;;9.30;99.90;;;;;;5053508;28;20033;-63
2022/11/04 00:42:26;;;;;;;13.63;5.63;;;9.30;99.90;;;;;;5044633;28;20084;-63
2022/11/04 00:44:53;;;;;;;12.02;5.47;;;9.30;99.90;;;;;;5034073;28;20033;-63
2022/11/04 00:47:19;;;;;;;10.65;5.03;;;9.30;99.90;;;;;;5033434;28;20112;-63
2022/11/04 00:49:46;;;;;;;12.13;5.70;;;9.40;99.90;;;;;;5034224;28;20424;-63
2022/11/04 00:52:13;;;;;;;11.50;6.00;;;9.30;99.90;;;;;;5033957;28;20041;-63
2022/11/04 00:54:39;;;;;;;11.93;5.57;;;9.30;99.90;;;;;;5046264;28;20068;-62
2022/11/04 00:57:06;;;;;;;13.13;6.15;;;9.30;99.90;;;;;;5052635;28;20091;-63
2022/11/04 00:59:33;;;;;;;15.05;6.65;;;9.30;99.90;;;;;;5043960;28;20125;-63
2022/11/04 01:01:59;;;;;;;14.43;6.10;;;9.30;99.90;;;;;;5033382;28;20080;-63
2022/11/04 01:04:26;;;;;;;11.30;5.63;;;9.30;99.90;;;;;;5033433;28;20046;-63
2022/11/04 01:06:53;;;;;;;9.20;5.72;;;9.40;99.90;;;;;;5033894;28;20076;-63
2022/11/04 01:09:19;;;;;;;8.38;5.40;;;9.30;99.90;;;;;;5033340;28;20200;-63
2022/11/04 01:11:46;;;;;;;8.65;5.18;;;9.30;99.90;;;;;;5045787;28;20041;-63
2022/11/04 01:14:13;;;;;;;9.25;5.22;;;9.40;99.90;;;;;;5053137;28;20098;-63
2022/11/04 01:16:40;;;;;;;10.85;5.35;;;9.30;99.90;;;;;;5053497;28;20083;-62
2022/11/04 01:19:06;;;;;;;12.85;5.05;;;9.30;99.90;;;;;;5053834;28;20452;-62
2022/11/04 01:21:33;;;;;;;11.40;5.30;;;9.30;99.90;;;;;;5053757;28;20476;-62
2022/11/04 01:24:00;;;;;;;11.05;4.07;;;9.30;99.90;;;;;;5051461;28;20110;-62
2022/11/04 01:26:26;;;;;;;8.93;3.97;;;9.30;99.90;;;;;;5053383;28;20048;-62
2022/11/04 01:28:53;;;;;;;6.63;3.50;;;9.30;99.90;;;;;;5053349;28;20069;-62
2022/11/04 01:31:20;;;;;;;9.02;3.67;;;9.20;99.90;;;;;;5052546;28;20083;-62
2022/11/04 01:33:47;;;;;;;9.15;3.33;;;9.30;99.90;;;;;;5051970;28;20133;-62
2022/11/04 01:36:14;;;;;;;7.75;3.70;;;9.20;99.90;;;;;;5052049;28;20102;-62
2022/11/04 01:38:41;;;;;;;7.47;3.35;;;9.20;99.90;;;;;;5052411;28;20045;-62
2022/11/04 01:41:07;;;;;;;9.98;2.83;;;9.20;99.90;;;;;;5052549;28;20051;-63
2022/11/04 01:43:34;;;;;;;5.45;2.60;;;9.20;99.90;;;;;;5052936;28;20094;-62
2022/11/04 01:46:01;;;;;;;8.80;3.00;;;9.10;99.90;;;;;;5052998;28;20112;-62
2022/11/04 01:48:28;;;;;;;6.28;2.80;;;9.10;99.90;;;;;;5051262;28;20037;-62
2022/11/04 01:50:55;;;;;;;7.95;3.47;;;9.10;99.90;;;;;;5052443;28;20040;-63
2022/11/04 01:53:21;;;;;;;11.13;3.78;;;9.00;99.90;;;;;;5052141;28;20120;-62
2022/11/04 01:55:48;;;;;;;6.38;3.28;;;9.00;99.90;;;;;;5053206;28;20483;-62
2022/11/04 01:58:15;;;;;;;7.45;3.22;;;9.00;99.90;;;;;;5052986;28;20076;-62
2022/11/04 02:00:42;;;;;;;5.43;2.80;;;9.00;99.90;;;;;;5052925;28;20123;-62
2022/11/04 02:03:08;;;;;;;5.43;2.70;;;9.00;99.90;;;;;;5052710;28;20449;-63
2022/11/04 02:05:36;;;;;;;4.20;1.65;;;9.00;99.90;;;;;;5052590;28;20049;-62
2022/11/04 02:08:02;;;;;;;5.63;1.92;;;9.00;99.90;;;;;;5055143;28;20147;-62
2022/11/04 02:10:29;;;;;;;4.97;2.00;;;9.00;99.90;;;;;;5056035;28;20037;-62
2022/11/04 02:12:56;;;;;;;3.88;1.83;;;9.00;99.90;;;;;;5055386;28;20041;-63
2022/11/04 02:15:22;;;;;;;3.33;1.70;;;9.00;99.90;;;;;;5056540;28;20124;-63
2022/11/04 02:17:49;;;;;;;5.35;1.48;;;9.00;99.90;;;;;;5056027;28;20053;-63
2022/11/04 02:20:16;;;;;;;5.80;1.90;;;9.00;99.90;;;;;;5056259;28;20447;-62
2022/11/04 02:22:43;;;;;;;6.53;2.30;;;9.00;99.90;;;;;;5054762;28;20057;-63
2022/11/04 02:25:09;;;;;;;5.88;1.95;;;9.00;99.90;;;;;;5055149;28;20047;-63
2022/11/04 02:27:36;;;;;;;7.72;2.72;;;9.10;99.90;;;;;;5036572;28;20072;-62
2022/11/04 02:30:03;;;;;;;6.55;2.42;;;9.00;99.90;;;;;;5036536;28;20120;-63
2022/11/04 02:32:29;;;;;;;8.60;2.67;;;9.10;99.90;;;;;;5036083;28;20068;-63
2022/11/04 02:34:56;;;;;;;6.32;2.28;;;9.10;99.90;;;;;;5036101;28;20095;-63
2022/11/04 02:37:23;;;;;;;6.65;2.42;;;9.00;99.90;;;;;;5039001;28;20075;-63
2022/11/04 02:39:50;;;;;;;5.75;2.15;;;9.10;99.90;;;;;;5055445;28;20048;-63
2022/11/04 02:42:16;;;;;;;7.10;2.00;;;9.00;99.90;;;;;;5056220;28;20070;-63
2022/11/04 02:44:43;;;;;;;7.22;2.78;;;9.00;99.90;;;;;;5054568;28;20045;-62
2022/11/04 02:47:10;;;;;;;6.68;1.90;;;9.10;99.90;;;;;;5056316;28;20047;-62
2022/11/04 02:49:37;;;;;;;7.70;2.83;;;9.00;99.90;;;;;;5056339;28;20419;-62
2022/11/04 02:52:04;;;;;;;7.45;3.75;;;9.00;99.90;;;;;;5040592;28;20423;-62
2022/11/04 02:54:30;;;;;;;7.88;3.45;;;9.00;99.90;;;;;;5035876;28;20046;-62
2022/11/04 02:56:57;;;;;;;10.68;4.32;;;9.00;99.90;;;;;;5035488;28;20459;-63
2022/11/04 02:59:24;;;;;;;12.77;5.60;;;8.90;99.90;;;;;;5043994;28;20041;-63
2022/11/04 03:01:51;;;;;;;11.30;5.63;;;8.90;99.90;;;;;;5054376;28;20124;-63
2022/11/04 03:04:18;;;;;;;13.10;6.90;;;8.90;99.90;;;;;;5036363;28;20052;-62
2022/11/04 03:06:45;;;;;;;13.63;8.07;;;9.00;99.90;;;;;;5035428;28;20045;-62
2022/11/04 03:09:11;;;;;;;16.55;8.95;;;9.00;99.90;;;;;;5038067;28;20037;-63
2022/11/04 03:11:38;;;;;;;16.15;9.15;;;8.90;99.90;;;;;;5055154;28;20045;-63
2022/11/04 03:14:05;;;;;;;16.38;9.00;;;8.90;99.90;;;;;;5055448;28;20068;-63
2022/11/04 03:16:31;;;;;;;14.05;9.27;;;8.90;99.90;;;;;;5055310;28;20060;-63
2022/11/04 03:18:58;;;;;;;19.42;9.88;;;8.90;99.90;;;;;;5054508;28;20044;-63
2022/11/04 03:21:25;;;;;;;17.08;9.82;;;8.90;99.90;;;;;;5054511;28;20048;-63
2022/11/04 03:23:53;;;;;;;18.25;10.35;;;8.80;99.90;;;;;;5054846;28;20508;-63
2022/11/04 03:26:19;;;;;;;18.63;10.52;;;8.80;99.90;;;;;;5053934;28;20041;-62
2022/11/04 03:28:46;;;;;;;16.48;10.13;;;8.80;99.90;;;;;;5054128;28;20041;-62
2022/11/04 03:31:13;;;;;;;18.27;11.75;;;8.80;99.90;;;;;;5054840;28;20098;-63
2022/11/04 03:33:40;;;;;;;18.35;10.45;;;8.80;99.90;;;;;;5053422;28;20064;-63
2022/11/04 03:36:07;;;;;;;21.27;10.80;;;8.80;99.90;;;;;;5054610;28;20124;-63
2022/11/04 03:38:34;;;;;;;18.58;10.25;;;8.70;99.90;;;;;;5053685;28;20128;-63
2022/11/04 03:41:01;;;;;;;15.57;10.00;;;8.70;99.90;;;;;;5049236;28;20049;-63
2022/11/04 03:43:27;;;;;;;15.85;9.18;;;8.70;99.90;;;;;;5054599;28;20041;-63
2022/11/04 03:45:54;;;;;;;20.38;8.82;;;8.60;99.90;;;;;;5054421;28;20135;-63
2022/11/04 03:48:21;;;;;;;16.23;9.20;;;8.60;99.90;;;;;;5053523;28;20080;-63
2022/11/04 03:50:47;;;;;;;13.55;8.63;;;8.50;99.90;;;;;;5054627;28;20084;-62
2022/11/04 03:53:14;;;;;;;12.25;9.10;;;8.50;99.90;;;;;;5053767;28;20090;-63
2022/11/04 03:55:41;;;;;;;18.17;8.93;;;8.50;99.90;;;;;;5053888;28;20127;-63
2022/11/04 03:58:08;;;;;;;16.80;8.90;;;8.50;99.90;;;;;;5054558;28;20057;-63
2022/11/04 04:00:35;;;;;;;13.52;8.65;;;8.50;99.90;;;;;;5054710;28;20037;-62
2022/11/04 04:03:02;;;;;;;12.60;7.60;;;8.50;99.90;;;;;;5052506;28;20151;-63
2022/11/04 04:05:28;;;;;;;18.95;8.23;;;8.50;99.90;;;;;;5054484;28;20041;-62
2022/11/04 04:07:55;;;;;;;15.00;7.53;;;8.50;99.90;;;;;;5053638;28;20053;-62
2022/11/04 04:10:40;;;;;;;12.63;6.55;;;8.50;99.90;;;;;;5053483;28;20492;-63
2022/11/04 04:13:07;;;;;;;10.13;5.32;;;8.40;99.90;;;;;;5053287;28;20106;-63
2022/11/04 04:15:34;;;;;;;12.90;5.88;;;8.40;99.90;;;;;;5030900;28;20033;-63
2022/11/04 04:18:00;;;;;;;16.75;5.68;;;8.40;99.90;;;;;;5053679;28;20052;-63
2022/11/04 04:20:27;;;;;;;10.43;5.30;;;8.30;99.90;;;;;;5052813;28;20056;-63
2022/11/04 04:22:54;;;;;;;15.48;5.28;;;8.30;99.90;;;;;;5053801;28;20048;-63
2022/11/04 04:28:06;;;;;;;12.10;5.00;;;8.30;99.90;;;;;;5054005;28;20080;-63
2022/11/04 04:30:33;;;;;;;15.43;4.80;;;8.30;99.90;;;;;;5053770;28;20384;-63
2022/11/04 04:33:00;;;;;;;12.73;4.80;;;8.30;99.90;;;;;;5052005;28;20076;-63
2022/11/04 04:35:42;;;;;;;14.05;4.40;;;8.30;99.90;;;;;;5053503;28;20037;-62
2022/11/04 04:46:25;;;;;;;13.02;4.45;;;8.20;99.90;;;;;;5048681;28;20071;-62
2022/11/04 04:48:52;;;;;;;17.30;4.75;;;8.20;99.90;;;;;;5052539;28;20036;-62
2022/11/04 04:51:18;;;;;;;15.10;4.65;;;8.20;99.90;;;;;;5049138;28;20115;-63
2022/11/04 04:53:45;;;;;;;15.00;4.38;;;8.20;99.90;;;;;;5047892;28;20030;-63
2022/11/04 04:56:12;;;;;;;9.73;4.55;;;8.20;99.90;;;;;;5038444;28;20479;-64
2022/11/04 04:58:38;;;;;;;12.02;4.32;;;8.20;99.90;;;;;;5052070;28;20107;-63
2022/11/04 05:01:07;;;;;;;13.48;4.13;;;8.20;99.90;;;;;;5047834;28;20124;-63
2022/11/04 05:03:34;;;;;;;13.30;4.57;;;8.20;99.90;;;;;;5033596;28;20484;-63
2022/11/04 05:06:06;;;;;;;15.50;5.30;;;8.20;99.90;;;;;;5034806;28;20530;-63
2022/11/04 05:08:34;;;;;;;13.98;5.43;;;8.10;99.90;;;;;;5033554;28;20069;-63
2022/11/04 05:11:00;;;;;;;13.93;5.68;;;8.10;99.90;;;;;;5053075;28;20052;-63
2022/11/04 05:13:28;;;;;;;13.52;5.60;;;8.10;99.90;;;;;;5045354;28;20072;-63
2022/11/04 05:15:56;;;;;;;13.60;5.93;;;8.00;99.90;;;;;;5032961;28;20092;-63
2022/11/04 05:18:22;;;;;;;15.48;5.82;;;8.00;99.90;;;;;;5034386;28;20069;-63
2022/11/04 05:20:49;;;;;;;17.92;6.30;;;8.00;99.90;;;;;;5032148;28;20407;-63
2022/11/04 05:23:16;;;;;;;15.93;6.15;;;8.00;99.90;;;;;;5034229;28;20037;-63
2022/11/04 05:25:43;;;;;;;12.65;6.30;;;8.00;99.90;;;;;;5052138;28;20068;-63
2022/11/04 05:28:09;;;;;;;17.23;7.93;;;8.00;99.90;;;;;;5041713;28;20033;-63
2022/11/04 05:30:37;;;;;;;16.17;7.45;;;7.90;99.90;;;;;;5051688;28;20045;-63
2022/11/04 05:33:03;;;;;;;13.73;7.05;;;7.90;99.90;;;;;;5033698;28;20073;-63
2022/11/04 05:35:31;;;;;;;16.77;7.68;;;7.90;99.90;;;;;;5052872;28;20052;-62
2022/11/04 05:37:57;;;;;;;16.17;8.48;;;7.90;99.90;;;;;;5051233;28;20047;-62
2022/11/04 05:40:24;;;;;;;16.00;8.75;;;7.80;99.90;;;;;;5042958;28;20148;-63
2022/11/04 05:42:51;;;;;;;16.65;9.02;;;7.80;99.90;;;;;;5051187;28;20051;-63
2022/11/04 05:45:18;;;;;;;23.17;10.65;;;7.70;99.90;;;;;;5044407;28;20049;-62
2022/11/04 05:47:44;;;;;;;20.42;10.38;;;7.70;99.90;;;;;;5037923;28;20129;-63
2022/11/04 05:50:11;;;;;;;20.92;10.80;;;7.70;99.90;;;;;;5056941;28;20041;-63
2022/11/04 05:52:38;;;;;;;21.60;10.93;;;7.60;99.90;;;;;;5054976;28;20072;-63
2022/11/04 05:55:04;;;;;;;21.55;11.15;;;7.60;99.90;;;;;;5048119;28;20057;-63
2022/11/04 05:57:31;;;;;;;21.70;11.82;;;7.60;99.90;;;;;;5035608;28;20072;-63
2022/11/04 05:59:58;;;;;;;23.45;12.40;;;7.60;99.90;;;;;;5048409;28;20041;-63
2022/11/04 06:02:24;;;;;;;22.48;11.90;;;7.50;99.90;;;;;;5035757;28;20471;-63
2022/11/04 06:04:51;;;;;;;23.02;11.50;;;7.50;99.90;;;;;;5045997;28;20127;-63
2022/11/04 06:07:18;;;;;;;24.80;11.25;;;7.50;99.90;;;;;;5053035;28;20527;-63
2022/11/04 06:09:45;;;;;;;19.50;11.60;;;7.50;99.90;;;;;;5055944;28;20507;-63
2022/11/04 06:12:13;;;;;;;22.20;10.80;;;7.50;99.90;;;;;;5056625;28;20044;-63
2022/11/04 06:14:40;;;;;;;20.15;10.18;;;7.50;99.90;;;;;;5045663;28;20476;-63
2022/11/04 06:17:07;;;;;;;25.67;10.77;;;7.40;99.90;;;;;;5042479;28;20123;-63
2022/11/04 06:19:35;;;;;;;18.95;9.68;;;7.40;99.90;;;;;;5050224;28;20488;-62
2022/11/04 06:22:02;;;;;;;16.17;9.57;;;7.40;99.90;;;;;;5055289;28;20512;-63
2022/11/04 06:24:29;;;;;;;18.83;9.05;;;7.40;99.90;;;;;;5037615;28;20455;-62
2022/11/04 06:26:56;;;;;;;23.83;9.70;;;7.40;99.90;;;;;;5051596;28;20086;-64
2022/11/04 06:29:23;;;;;;;18.45;8.73;;;7.40;99.90;;;;;;5041979;28;20120;-63
2022/11/04 06:31:50;;;;;;;15.48;8.32;;;7.30;99.90;;;;;;5037577;28;20461;-63
2022/11/04 06:34:16;;;;;;;16.67;8.75;;;7.30;99.90;;;;;;5053236;28;20468;-63
2022/11/04 06:36:43;;;;;;;16.90;9.38;;;7.30;99.90;;;;;;5042443;28;20053;-63
2022/11/04 06:39:10;;;;;;;14.90;8.65;;;7.30;99.90;;;;;;5048468;28;20102;-63
2022/11/04 06:41:37;;;;;;;19.23;8.30;;;7.30;99.90;;;;;;5052396;28;20041;-63
2022/11/04 06:44:03;;;;;;;19.10;8.88;;;7.30;99.90;;;;;;5050516;28;20132;-63
2022/11/04 06:46:30;;;;;;;21.52;8.35;;;7.30;99.90;;;;;;5035715;28;20468;-63
2022/11/04 06:48:57;;;;;;;19.55;9.40;;;7.30;99.90;;;;;;5036760;28;20492;-63
2022/11/04 06:51:23;;;;;;;16.33;9.00;;;7.30;99.90;;;;;;5050513;28;20095;-63
2022/11/04 06:53:50;;;;;;;21.98;9.63;;;7.30;99.90;;;;;;5041500;28;20045;-63
2022/11/04 06:56:17;;;;;;;20.20;10.27;;;7.30;99.90;;;;;;5038602;28;20489;-63
2022/11/04 06:58:44;;;;;;;18.23;9.07;;;7.30;99.90;;;;;;5049000;28;20436;-63
2022/11/04 07:01:10;;;;;;;16.90;9.35;;;7.30;99.90;;;;;;5051939;28;20424;-63
2022/11/04 07:03:45;;;;;;;19.98;8.65;;;7.30;99.90;;;;;;5039745;28;20038;-63
2022/11/04 07:06:12;;;;;;;18.90;9.65;;;7.30;99.90;;;;;;5052802;28;20556;-63
2022/11/04 07:08:39;;;;;;;19.45;9.93;;;7.30;99.90;;;;;;5047303;28;20030;-62
2022/11/04 07:11:06;;;;;;;21.55;9.27;;;7.20;99.90;;;;;;5040415;28;20029;-63
2022/11/04 07:13:33;;;;;;;22.75;9.35;;;7.20;99.90;;;;;;5055260;28;20048;-62
2022/11/04 07:16:00;;;;;;;18.30;9.23;;;7.20;99.90;;;;;;5048433;28;20052;-63
2022/11/04 07:18:26;;;;;;;16.08;9.57;;;7.20;99.90;;;;;;5054705;28;20107;-63
2022/11/04 07:20:53;;;;;;;17.88;9.80;;;7.20;99.90;;;;;;5039955;28;20473;-63
2022/11/04 07:23:20;;;;;;;14.63;9.27;;;7.20;99.90;;;;;;5037196;28;20048;-62
2022/11/04 07:25:47;;;;;;;18.35;8.85;;;7.20;99.90;;;;;;5051247;28;20069;-63
2022/11/04 07:28:14;;;;;;;17.63;9.23;;;7.30;99.90;;;;;;5050378;28;20076;-63
2022/11/04 07:30:41;;;;;;;16.48;9.27;;;7.20;99.90;;;;;;5034693;28;20087;-63
2022/11/04 07:33:08;;;;;;;14.85;8.85;;;7.20;99.90;;;;;;5035830;28;20069;-62
2022/11/04 07:35:34;;;;;;;14.43;8.60;;;7.20;99.90;;;;;;5043986;28;20072;-62
2022/11/04 07:38:02;;;;;;;20.98;9.52;;;7.20;99.90;;;;;;5043330;28;20046;-63
2022/11/04 07:40:29;;;;;;;18.92;9.35;;;7.10;99.90;;;;;;5034903;28;20053;-63
2022/11/04 07:42:56;;;;;;;18.17;8.80;;;7.10;99.90;;;;;;5034666;28;20129;-62
2022/11/04 07:45:33;;;;;;;17.85;9.77;;;7.10;99.90;;;;;;5051451;28;20500;-63
2022/11/04 07:48:00;;;;;;;20.27;9.40;;;7.10;99.90;;;;;;5036716;28;20057;-63
2022/11/04 07:50:27;;;;;;;20.17;9.95;;;7.10;99.90;;;;;;5043320;28;20051;-63
2022/11/04 07:52:54;;;;;;;18.67;9.70;;;7.10;99.90;;;;;;5052770;28;20124;-62
2022/11/04 07:55:21;;;;;;;16.30;9.35;;;7.10;99.90;;;;;;5035613;28;20045;-63
2022/11/04 07:57:47;;;;;;;17.45;8.85;;;7.10;99.90;;;;;;5038288;28;20051;-63
2022/11/04 08:00:14;;;;;;;15.73;9.30;;;7.20;99.90;;;;;;5051141;28;20041;-62
2022/11/04 08:02:43;;;;;;;16.42;9.10;;;7.20;99.90;;;;;;5048517;28;20121;-62
2022/11/04 08:05:09;;;;;;;15.15;9.30;;;7.20;99.90;;;;;;5046398;28;20103;-63
2022/11/04 08:07:36;;;;;;;16.13;9.35;;;7.20;99.90;;;;;;5045390;28;20518;-63
2022/11/04 08:10:03;;;;;;;17.25;9.30;;;7.20;99.90;;;;;;5052400;28;21000;-63
2022/11/04 08:12:31;;;;;;;16.33;8.45;;;7.30;99.90;;;;;;5049022;28;20059;-63
2022/11/04 08:14:58;;;;;;;18.65;9.10;;;7.30;99.90;;;;;;5052749;28;20041;-63
2022/11/04 08:17:24;;;;;;;15.88;8.60;;;7.30;99.90;;;;;;5051545;28;20045;-62
2022/11/04 08:19:51;;;;;;;17.83;8.88;;;7.30;99.90;;;;;;5052063;28;20148;-63
2022/11/04 08:22:18;;;;;;;15.27;8.40;;;7.30;99.90;;;;;;5042718;28;20484;-63
2022/11/04 08:24:46;;;;;;;21.63;8.30;;;7.40;99.90;;;;;;5040634;28;20095;-63
2022/11/04 08:27:12;;;;;;;18.33;8.30;;;7.40;99.90;;;;;;5039536;28;20084;-63
2022/11/04 08:29:39;;;;;;;16.23;7.85;;;7.40;99.90;;;;;;5048904;28;20120;-63
2022/11/04 08:32:06;;;;;;;14.35;8.23;;;7.40;99.90;;;;;;5050283;28;20048;-63
2022/11/04 08:34:33;;;;;;;22.15;8.65;;;7.50;99.90;;;;;;5033838;28;20476;-63
2022/11/04 08:36:59;;;;;;;19.40;8.05;;;7.50;99.90;;;;;;5035299;28;20048;-63
2022/11/04 08:39:26;;;;;;;16.48;7.68;;;7.50;99.90;;;;;;5034815;28;20154;-63
2022/11/04 08:41:53;;;;;;;21.30;8.88;;;7.60;99.90;;;;;;5047017;28;20094;-63
2022/11/04 08:44:20;;;;;;;20.40;11.23;;;7.50;99.90;;;;;;5053216;28;20033;-63
2022/11/04 08:46:46;;;;;;;15.48;7.22;;;7.60;99.90;;;;;;5050410;28;20056;-63
2022/11/04 08:49:13;;;;;;;11.25;6.90;;;7.60;99.90;;;;;;5050628;28;20053;-62
2022/11/04 08:51:48;;;;;;;17.45;7.15;;;7.60;99.90;;;;;;5046362;28;20473;-63
2022/11/04 08:54:15;;;;;;;15.50;7.47;;;7.70;99.90;;;;;;5047748;28;20129;-62
2022/11/04 08:56:41;;;;;;;16.38;8.23;;;7.70;99.90;;;;;;5052010;28;20048;-62
2022/11/04 08:59:09;;;;;;;14.90;6.00;;;7.80;99.90;;;;;;5052952;28;20423;-62
2022/11/04 09:01:36;;;;;;;14.38;5.88;;;7.80;99.90;;;;;;5053007;28;20049;-62
2022/11/04 09:04:03;;;;;;;15.48;5.22;;;7.90;99.90;;;;;;5052191;28;20051;-62
2022/11/04 09:06:30;;;;;;;15.10;5.85;;;7.90;99.90;;;;;;5051858;28;20115;-62
2022/11/04 09:09:02;;;;;;;12.80;5.00;;;7.90;99.90;;;;;;5050697;28;20476;-62
2022/11/04 09:11:29;;;;;;;13.70;5.20;;;8.00;99.90;;;;;;5051810;28;20428;-62
2022/11/04 09:13:56;;;;;;;9.70;4.60;;;8.00;99.90;;;;;;5045383;28;20041;-62
2022/11/04 09:16:23;;;;;;;10.20;4.45;;;8.10;99.90;;;;;;5047521;28;20128;-62
2022/11/04 09:18:49;;;;;;;11.18;4.90;;;8.10;99.90;;;;;;5050941;28;20158;-62
2022/11/04 09:21:16;;;;;;;14.20;5.47;;;8.10;99.90;;;;;;5052438;28;20037;-62
2022/11/04 09:23:43;;;;;;;11.55;4.53;;;8.20;99.90;;;;;;5055519;28;20049;-62
2022/11/04 09:26:10;;;;;;;9.88;4.10;;;8.20;99.90;;;;;;5055084;28;20531;-62
2022/11/04 09:28:36;;;;;;;13.48;4.88;;;8.30;99.90;;;;;;5037547;28;20111;-62
2022/11/04 09:31:03;;;;;;;13.82;4.40;;;8.30;99.90;;;;;;5042867;28;20037;-61
2022/11/04 09:33:30;;;;;;;16.23;4.15;;;8.30;99.90;;;;;;5056235;28;20045;-63
2022/11/04 09:35:56;;;;;;;12.85;4.88;;;8.40;99.90;;;;;;5056897;28;20029;-63
2022/11/04 09:38:23;;;;;;;15.25;4.95;;;8.40;99.90;;;;;;5056688;28;20048;-62
2022/11/04 09:40:50;;;;;;;15.30;4.43;;;8.40;99.90;;;;;;5052744;28;20563;-62
2022/11/04 09:43:17;;;;;;;16.65;4.78;;;8.40;99.90;;;;;;5042991;28;20060;-62
2022/11/04 09:45:43;;;;;;;12.68;4.07;;;8.50;99.90;;;;;;5056502;28;20037;-62
2022/11/04 09:48:10;;;;;;;10.60;4.70;;;8.50;99.90;;;;;;5057166;28;20044;-62
2022/11/04 09:50:37;;;;;;;12.07;4.03;;;8.50;99.90;;;;;;5056447;28;20118;-62
2022/11/04 09:53:03;;;;;;;15.80;4.97;;;8.60;99.90;;;;;;5056291;28;20037;-63
2022/11/04 09:55:31;;;;;;;11.68;4.30;;;8.70;99.90;;;;;;5055791;28;20041;-62
2022/11/04 09:57:57;;;;;;;14.70;4.10;;;8.70;99.90;;;;;;5052856;28;20049;-62
2022/11/04 10:00:24;;;;;;;14.18;4.47;;;8.70;99.90;;;;;;5056692;28;20506;-62
2022/11/04 10:02:51;;;;;;;10.00;4.07;;;8.80;99.90;;;;;;5055128;28;20087;-62
2022/11/04 10:05:18;;;;;;;13.88;4.70;;;8.80;99.90;;;;;;5036833;28;20049;-62
2022/11/04 10:07:45;;;;;;;11.77;3.47;;;8.90;99.90;;;;;;5052469;28;20083;-62
2022/11/04 10:10:12;;;;;;;13.15;3.90;;;8.90;99.90;;;;;;5041138;28;20083;-62
2022/11/04 10:12:39;;;;;;;10.88;3.65;;;9.00;99.90;;;;;;5056110;28;20041;-62
2022/11/04 10:15:06;;;;;;;11.07;4.07;;;9.00;99.90;;;;;;5053288;28;20041;-62
2022/11/04 10:17:32;;;;;;;12.70;3.78;;;9.00;99.90;;;;;;5055519;28;20073;-62
2022/11/04 10:19:59;;;;;;;12.15;4.07;;;9.10;99.90;;;;;;5051098;28;20064;-61
2022/11/04 10:22:27;;;;;;;11.18;3.95;;;9.10;99.90;;;;;;5035455;28;20538;-62
2022/11/04 10:24:54;;;;;;;12.25;4.45;;;9.20;99.90;;;;;;5035857;28;20091;-62
2022/11/04 10:27:21;;;;;;;13.43;3.95;;;9.20;99.90;;;;;;5050529;28;20038;-62
2022/11/04 10:29:48;;;;;;;15.18;3.80;;;9.30;99.90;;;;;;5042005;28;20049;-62
2022/11/04 10:32:14;;;;;;;12.27;3.45;;;9.30;99.90;;;;;;5046085;28;20471;-62
2022/11/04 10:34:48;;;;;;;12.52;4.20;;;9.40;99.90;;;;;;5064627;28;20072;-62
2022/11/04 10:37:15;;;;;;;7.97;3.28;;;9.50;99.90;;;;;;5055296;28;20033;-61
2022/11/04 10:39:42;;;;;;;12.23;3.70;;;9.50;99.90;;;;;;5045728;28;20044;-62
2022/11/04 10:42:09;;;;;;;9.60;3.85;;;9.60;99.90;;;;;;5047352;28;20509;-62
2022/11/04 10:44:36;;;;;;;9.90;3.40;;;9.70;99.90;;;;;;5050345;28;20552;-63
2022/11/04 10:47:02;;;;;;;10.02;4.03;;;9.70;99.90;;;;;;5053748;28;20067;-63
2022/11/04 10:49:29;;;;;;;7.78;3.10;;;9.70;99.90;;;;;;5050235;28;20476;-63
2022/11/04 10:51:56;;;;;;;8.10;3.20;;;9.80;99.90;;;;;;5045279;28;20098;-62
2022/11/04 10:54:23;;;;;;;10.88;3.42;;;9.80;99.90;;;;;;5047147;28;20041;-63
2022/11/04 10:56:49;;;;;;;9.45;3.67;;;9.80;99.90;;;;;;5045224;28;20044;-61
2022/11/04 10:59:18;;;;;;;10.77;3.65;;;9.90;99.90;;;;;;5049198;28;20098;-62
2022/11/04 11:01:46;;;;;;;15.05;5.50;;;10.00;99.90;;;;;;5043939;28;20044;-62
2022/11/04 11:04:13;;;;;;;12.32;3.80;;;10.00;99.90;;;;;;5050087;28;20374;-62
2022/11/04 11:06:40;;;;;;;10.48;3.85;;;10.10;99.90;;;;;;5051533;28;20049;-62
2022/11/04 11:09:11;;;;;;;10.98;4.13;;;10.10;99.90;;;;;;5049180;28;20037;-62
2022/11/04 11:11:38;;;;;;;16.58;4.05;;;10.20;99.90;;;;;;5047149;28;20041;-63
2022/11/04 11:14:05;;;;;;;13.68;4.82;;;10.20;99.90;;;;;;5043123;28;20029;-62
2022/11/04 11:16:31;;;;;;;10.73;3.70;;;10.30;99.90;;;;;;5052193;28;20056;-62
2022/11/04 11:18:58;;;;;;;13.70;4.15;;;10.30;99.90;;;;;;5045871;28;20110;-63
2022/11/04 11:21:25;;;;;;;13.27;4.30;;;10.30;99.90;;;;;;5036725;28;20128;-62
2022/11/04 11:23:54;;;;;;;11.15;4.28;;;10.30;99.90;;;;;;5050914;28;20099;-63
2022/11/04 11:26:21;;;;;;;11.15;4.97;;;10.40;99.90;;;;;;5051447;28;20045;-63
2022/11/04 11:28:48;;;;;;;12.48;4.75;;;10.40;99.90;;;;;;5054109;28;20618;-63
2022/11/04 11:31:25;;;;;;;12.27;4.82;;;10.50;99.90;;;;;;5043594;28;20045;-62
2022/11/04 11:33:52;;;;;;;12.05;5.05;;;10.50;99.90;;;;;;5053800;28;20045;-63
2022/11/04 11:36:19;;;;;;;14.57;5.05;;;10.50;99.90;;;;;;5053103;28;20135;-62
2022/11/04 11:38:45;;;;;;;13.88;4.43;;;10.60;99.90;;;;;;5054360;28;20069;-63
2022/11/04 11:41:12;;;;;;;13.85;5.38;;;10.60;99.90;;;;;;5053203;28;20033;-63
2022/11/04 11:43:54;;;;;;;16.63;4.25;;;10.80;99.90;;;;;;5054654;28;20037;-63
2022/11/04 11:46:22;;;;;;;14.27;4.55;;;10.80;99.90;;;;;;5054569;28;20041;-63
2022/11/04 11:48:48;;;;;;;10.68;4.20;;;10.90;99.90;;;;;;5053400;28;20049;-62
2022/11/04 11:51:15;;;;;;;13.27;3.92;;;10.90;99.90;;;;;;5053033;28;20041;-63
2022/11/04 11:53:46;;;;;;;14.65;3.95;;;11.00;99.90;;;;;;5050677;28;20059;-62
2022/11/04 11:56:13;;;;;;;12.80;3.28;;;11.00;99.90;;;;;;5043561;28;20048;-62
2022/11/04 11:58:40;;;;;;;10.82;4.05;;;11.00;99.90;;;;;;5045838;28;20037;-62
2022/11/04 12:01:27;;;;;;;11.43;3.45;;;11.00;99.90;;;;;;5049568;28;20068;-62
2022/11/04 12:03:53;;;;;;;13.52;3.70;;;11.00;99.90;;;;;;5049404;28;20498;-62
2022/11/04 12:06:41;;;;;;;12.35;4.05;;;11.00;99.90;;;;;;5045647;28;20041;-62
2022/11/04 12:09:30;;;;;;;14.38;4.38;;;11.00;99.90;;;;;;5049360;28;20546;-62
2022/11/04 12:12:00;;;;;;;13.13;4.00;;;11.00;99.90;;;;;;5053160;28;20049;-62
2022/11/04 12:14:27;;;;;;;15.13;4.57;;;11.00;99.90;;;;;;5050849;28;20041;-62
2022/11/04 12:16:53;;;;;;;11.68;4.35;;;11.00;99.90;;;;;;5053584;28;20049;-62
2022/11/04 12:19:20;;;;;;;11.00;4.00;;;11.00;99.90;;;;;;5052813;28;20412;-62
2022/11/04 12:21:47;;;;;;;11.68;3.92;;;11.00;99.90;;;;;;5045436;28;20119;-63
2022/11/04 12:24:14;;;;;;;12.20;3.83;;;11.00;99.90;;;;;;5046336;28;20044;-62
2022/11/04 12:26:41;;;;;;;12.23;4.35;;;11.10;99.90;;;;;;5052166;28;20484;-62
2022/11/04 12:29:08;;;;;;;11.68;3.85;;;11.10;99.90;;;;;;5053422;28;20052;-62
2022/11/04 12:31:35;;;;;;;12.93;3.55;;;11.10;99.90;;;;;;5044129;28;20504;-62
2022/11/04 12:34:01;;;;;;;11.70;3.28;;;11.20;99.90;;;;;;5048936;28;20053;-62
2022/11/04 12:36:28;;;;;;;11.20;3.97;;;11.20;99.90;;;;;;5047383;28;20045;-62
2022/11/04 12:38:55;;;;;;;9.57;3.72;;;11.20;99.90;;;;;;5051741;28;20087;-63
2022/11/04 12:41:23;;;;;;;7.32;3.35;;;11.20;99.90;;;;;;5052048;28;20045;-63
2022/11/04 12:44:11;;;;;;;9.05;3.00;;;11.20;99.90;;;;;;5051694;28;20045;-62
2022/11/04 12:46:37;;;;;;;11.27;2.65;;;11.20;99.90;;;;;;5053473;28;20045;-63
2022/11/04 12:49:04;;;;;;;23.27;3.10;;;11.20;99.90;;;;;;5053507;28;20048;-63
2022/11/04 12:51:33;;;;;;;8.52;2.60;;;11.20;99.90;;;;;;5052946;28;20045;-63
2022/11/04 12:53:59;;;;;;;8.35;2.35;;;11.20;99.90;;;;;;5053149;28;20052;-63
2022/11/04 12:56:26;;;;;;;11.10;2.70;;;11.20;99.90;;;;;;5053652;28;20507;-63
2022/11/04 12:58:53;;;;;;;13.02;2.85;;;11.30;99.90;;;;;;5053078;28;20502;-63
2022/11/04 13:01:19;;;;;;;10.75;2.30;;;11.30;99.90;;;;;;5053050;28;20099;-65
2022/11/04 13:03:46;;;;;;;9.52;3.00;;;11.30;99.90;;;;;;5053127;28;20077;-63
2022/11/04 13:06:13;;;;;;;8.95;2.60;;;11.30;99.90;;;;;;5053127;28;20052;-63
2022/11/04 13:08:40;;;;;;;9.25;2.55;;;11.30;99.90;;;;;;5052783;28;20559;-63
2022/11/04 13:11:21;;;;;;;10.77;3.15;;;11.40;99.90;;;;;;5053260;28;20037;-63
2022/11/04 13:13:48;;;;;;;9.13;3.30;;;11.40;99.90;;;;;;5053024;28;20041;-62